sensor_id;sensor_type;location;lat;lon;timestamp;P1;durP1;ratioP1;P2;durP2;ratioP2
21800;SDS011;11062;51.164;16.924;2024-01-07T00:01:34;45.83;;;11.02;;
21800;SDS011;11062;51.164;16.924;2024-01-07T00:04:00;20.20;;;8.02;;
21800;SDS011;11062;51.164;16.924;2024-01-07T00:06:29;50.88;;;14.30;;
21800;SDS011;11062;51.164;16.924;2024-01-07T00:08:58;30.45;;;10.27;;
21800;SDS011;11062;51.164;16.924;2024-01-07T00:11:29;39.05;;;18.60;;
21800;SDS011;11062;51.164;16.924;2024-01-07T00:13:58;46.25;;;14.10;;
21800;SDS011;11062;51.164;16.924;2024-01-07T00:16:32;29.65;;;12.70;;
21800;SDS011;11062;51.164;16.924;2024-01-07T00:19:02;52.80;;;12.98;;
21800;SDS011;11062;51.164;16.924;2024-01-07T00:21:27;30.13;;;9.43;;
21800;SDS011;11062;51.164;16.924;2024-01-07T00:23:56;23.73;;;8.63;;
21800;SDS011;11062;51.164;16.924;2024-01-07T00:26:30;28.25;;;10.70;;
21800;SDS011;11062;51.164;16.924;2024-01-07T00:29:04;49.65;;;18.05;;
21800;SDS011;11062;51.164;16.924;2024-01-07T00:31:30;56.85;;;11.70;;
21800;SDS011;11062;51.164;16.924;2024-01-07T00:34:02;42.08;;;24.45;;
21800;SDS011;11062;51.164;16.924;2024-01-07T00:36:27;44.08;;;25.65;;
21800;SDS011;11062;51.164;16.924;2024-01-07T00:38:53;25.48;;;7.72;;
21800;SDS011;11062;51.164;16.924;2024-01-07T00:41:19;20.30;;;7.38;;
21800;SDS011;11062;51.164;16.924;2024-01-07T00:43:52;44.13;;;9.20;;
21800;SDS011;11062;51.164;16.924;2024-01-07T00:46:18;19.83;;;7.80;;
21800;SDS011;11062;51.164;16.924;2024-01-07T00:48:47;28.70;;;13.02;;
21800;SDS011;11062;51.164;16.924;2024-01-07T00:51:12;18.98;;;14.25;;
21800;SDS011;11062;51.164;16.924;2024-01-07T00:53:38;25.13;;;15.13;;
21800;SDS011;11062;51.164;16.924;2024-01-07T00:56:07;23.90;;;8.50;;
21800;SDS011;11062;51.164;16.924;2024-01-07T00:58:36;31.95;;;10.68;;
21800;SDS011;11062;51.164;16.924;2024-01-07T01:01:05;30.33;;;8.60;;
21800;SDS011;11062;51.164;16.924;2024-01-07T01:03:37;33.00;;;21.08;;
21800;SDS011;11062;51.164;16.924;2024-01-07T01:06:05;31.30;;;11.90;;
21800;SDS011;11062;51.164;16.924;2024-01-07T01:08:31;21.58;;;10.65;;
21800;SDS011;11062;51.164;16.924;2024-01-07T01:10:57;41.92;;;9.32;;
21800;SDS011;11062;51.164;16.924;2024-01-07T01:13:23;20.17;;;6.95;;
21800;SDS011;11062;51.164;16.924;2024-01-07T01:15:51;20.00;;;7.70;;
21800;SDS011;11062;51.164;16.924;2024-01-07T01:18:17;30.35;;;22.55;;
21800;SDS011;11062;51.164;16.924;2024-01-07T01:20:45;22.88;;;9.20;;
21800;SDS011;11062;51.164;16.924;2024-01-07T01:23:11;27.08;;;7.97;;
21800;SDS011;11062;51.164;16.924;2024-01-07T01:25:40;26.73;;;8.70;;
21800;SDS011;11062;51.164;16.924;2024-01-07T01:28:06;28.17;;;7.57;;
21800;SDS011;11062;51.164;16.924;2024-01-07T01:30:34;17.42;;;7.32;;
21800;SDS011;11062;51.164;16.924;2024-01-07T01:33:00;23.83;;;7.40;;
21800;SDS011;11062;51.164;16.924;2024-01-07T01:35:27;17.17;;;6.90;;
21800;SDS011;11062;51.164;16.924;2024-01-07T01:37:55;36.95;;;8.25;;
21800;SDS011;11062;51.164;16.924;2024-01-07T01:40:21;16.25;;;6.40;;
21800;SDS011;11062;51.164;16.924;2024-01-07T01:42:47;19.80;;;7.10;;
21800;SDS011;11062;51.164;16.924;2024-01-07T01:45:16;20.00;;;7.80;;
21800;SDS011;11062;51.164;16.924;2024-01-07T01:47:44;18.75;;;6.97;;
21800;SDS011;11062;51.164;16.924;2024-01-07T01:50:13;34.15;;;7.97;;
21800;SDS011;11062;51.164;16.924;2024-01-07T01:52:39;25.25;;;7.88;;
21800;SDS011;11062;51.164;16.924;2024-01-07T01:55:05;28.13;;;8.20;;
21800;SDS011;11062;51.164;16.924;2024-01-07T01:57:35;20.30;;;7.20;;
21800;SDS011;11062;51.164;16.924;2024-01-07T02:00:05;28.20;;;9.85;;
21800;SDS011;11062;51.164;16.924;2024-01-07T02:02:31;19.48;;;7.80;;
21800;SDS011;11062;51.164;16.924;2024-01-07T02:05:02;30.33;;;10.82;;
21800;SDS011;11062;51.164;16.924;2024-01-07T02:07:31;28.23;;;15.20;;
21800;SDS011;11062;51.164;16.924;2024-01-07T02:09:57;24.67;;;17.38;;
21800;SDS011;11062;51.164;16.924;2024-01-07T02:12:27;39.55;;;21.70;;
21800;SDS011;11062;51.164;16.924;2024-01-07T02:14:53;21.90;;;7.53;;
21800;SDS011;11062;51.164;16.924;2024-01-07T02:17:19;52.78;;;9.75;;
21800;SDS011;11062;51.164;16.924;2024-01-07T02:19:45;34.35;;;9.18;;
21800;SDS011;11062;51.164;16.924;2024-01-07T02:22:14;23.17;;;8.13;;
21800;SDS011;11062;51.164;16.924;2024-01-07T02:24:40;25.38;;;9.25;;
21800;SDS011;11062;51.164;16.924;2024-01-07T02:27:06;22.08;;;7.88;;
21800;SDS011;11062;51.164;16.924;2024-01-07T02:29:31;23.02;;;6.93;;
21800;SDS011;11062;51.164;16.924;2024-01-07T02:31:57;32.83;;;8.48;;
21800;SDS011;11062;51.164;16.924;2024-01-07T02:34:23;22.73;;;7.38;;
21800;SDS011;11062;51.164;16.924;2024-01-07T02:36:52;33.90;;;19.52;;
21800;SDS011;11062;51.164;16.924;2024-01-07T02:39:18;25.05;;;21.27;;
21800;SDS011;11062;51.164;16.924;2024-01-07T02:41:46;42.65;;;31.40;;
21800;SDS011;11062;51.164;16.924;2024-01-07T02:44:12;65.88;;;24.88;;
21800;SDS011;11062;51.164;16.924;2024-01-07T02:46:38;29.20;;;14.93;;
21800;SDS011;11062;51.164;16.924;2024-01-07T02:49:06;31.42;;;17.60;;
21800;SDS011;11062;51.164;16.924;2024-01-07T02:51:32;24.38;;;8.18;;
21800;SDS011;11062;51.164;16.924;2024-01-07T02:53:58;18.20;;;7.43;;
21800;SDS011;11062;51.164;16.924;2024-01-07T02:56:27;19.55;;;9.95;;
21800;SDS011;11062;51.164;16.924;2024-01-07T02:58:53;51.25;;;22.92;;
21800;SDS011;11062;51.164;16.924;2024-01-07T03:01:22;35.33;;;9.05;;
21800;SDS011;11062;51.164;16.924;2024-01-07T03:03:50;28.05;;;8.48;;
21800;SDS011;11062;51.164;16.924;2024-01-07T03:06:16;20.42;;;7.00;;
21800;SDS011;11062;51.164;16.924;2024-01-07T03:08:45;12.20;;;6.35;;
21800;SDS011;11062;51.164;16.924;2024-01-07T03:11:13;44.83;;;9.45;;
21800;SDS011;11062;51.164;16.924;2024-01-07T03:13:39;29.15;;;8.80;;
21800;SDS011;11062;51.164;16.924;2024-01-07T03:16:08;35.97;;;8.90;;
21800;SDS011;11062;51.164;16.924;2024-01-07T03:21:19;21.70;;;7.20;;
21800;SDS011;11062;51.164;16.924;2024-01-07T03:23:46;52.17;;;10.23;;
21800;SDS011;11062;51.164;16.924;2024-01-07T03:26:16;25.85;;;8.02;;
21800;SDS011;11062;51.164;16.924;2024-01-07T03:28:49;19.30;;;7.43;;
21800;SDS011;11062;51.164;16.924;2024-01-07T03:31:15;22.63;;;8.07;;
21800;SDS011;11062;51.164;16.924;2024-01-07T03:33:43;15.45;;;6.63;;
21800;SDS011;11062;51.164;16.924;2024-01-07T03:36:10;38.92;;;9.75;;
21800;SDS011;11062;51.164;16.924;2024-01-07T03:38:37;28.38;;;7.50;;
21800;SDS011;11062;51.164;16.924;2024-01-07T03:41:06;28.05;;;8.40;;
21800;SDS011;11062;51.164;16.924;2024-01-07T03:43:32;22.00;;;6.97;;
21800;SDS011;11062;51.164;16.924;2024-01-07T03:45:59;16.80;;;7.20;;
21800;SDS011;11062;51.164;16.924;2024-01-07T03:48:25;32.75;;;8.10;;
21800;SDS011;11062;51.164;16.924;2024-01-07T03:50:52;29.90;;;7.88;;
21800;SDS011;11062;51.164;16.924;2024-01-07T03:53:18;26.88;;;8.00;;
21800;SDS011;11062;51.164;16.924;2024-01-07T03:55:44;38.00;;;8.63;;
21800;SDS011;11062;51.164;16.924;2024-01-07T03:58:09;18.00;;;7.28;;
21800;SDS011;11062;51.164;16.924;2024-01-07T04:00:38;19.58;;;6.40;;
21800;SDS011;11062;51.164;16.924;2024-01-07T04:03:04;45.95;;;9.13;;
21800;SDS011;11062;51.164;16.924;2024-01-07T04:05:33;16.02;;;6.28;;
21800;SDS011;11062;51.164;16.924;2024-01-07T04:08:02;24.73;;;6.90;;
21800;SDS011;11062;51.164;16.924;2024-01-07T04:10:28;14.77;;;6.20;;
21800;SDS011;11062;51.164;16.924;2024-01-07T04:12:54;15.90;;;6.80;;
21800;SDS011;11062;51.164;16.924;2024-01-07T04:15:23;23.55;;;6.10;;
21800;SDS011;11062;51.164;16.924;2024-01-07T04:17:49;29.55;;;6.88;;
21800;SDS011;11062;51.164;16.924;2024-01-07T04:20:15;26.92;;;6.40;;
21800;SDS011;11062;51.164;16.924;2024-01-07T04:22:41;19.30;;;5.68;;
21800;SDS011;11062;51.164;16.924;2024-01-07T04:25:10;23.83;;;6.07;;
21800;SDS011;11062;51.164;16.924;2024-01-07T04:27:36;15.30;;;5.72;;
21800;SDS011;11062;51.164;16.924;2024-01-07T04:30:05;36.75;;;7.50;;
21800;SDS011;11062;51.164;16.924;2024-01-07T04:32:31;17.65;;;5.97;;
21800;SDS011;11062;51.164;16.924;2024-01-07T04:34:57;29.95;;;7.10;;
21800;SDS011;11062;51.164;16.924;2024-01-07T04:37:24;23.45;;;6.75;;
21800;SDS011;11062;51.164;16.924;2024-01-07T04:39:50;12.85;;;4.97;;
21800;SDS011;11062;51.164;16.924;2024-01-07T04:42:18;20.20;;;6.45;;
21800;SDS011;11062;51.164;16.924;2024-01-07T04:44:44;30.95;;;7.25;;
21800;SDS011;11062;51.164;16.924;2024-01-07T04:47:29;30.40;;;6.75;;
21800;SDS011;11062;51.164;16.924;2024-01-07T04:49:56;26.05;;;6.95;;
21800;SDS011;11062;51.164;16.924;2024-01-07T04:52:25;15.05;;;5.20;;
21800;SDS011;11062;51.164;16.924;2024-01-07T04:54:52;33.92;;;7.05;;
21800;SDS011;11062;51.164;16.924;2024-01-07T04:57:21;20.20;;;6.43;;
21800;SDS011;11062;51.164;16.924;2024-01-07T04:59:48;20.55;;;6.43;;
21800;SDS011;11062;51.164;16.924;2024-01-07T05:02:15;18.17;;;5.65;;
21800;SDS011;11062;51.164;16.924;2024-01-07T05:04:41;18.90;;;6.15;;
21800;SDS011;11062;51.164;16.924;2024-01-07T05:07:10;18.83;;;5.40;;
21800;SDS011;11062;51.164;16.924;2024-01-07T05:09:36;38.25;;;7.28;;
21800;SDS011;11062;51.164;16.924;2024-01-07T05:12:02;11.45;;;5.05;;
21800;SDS011;11062;51.164;16.924;2024-01-07T05:14:31;25.02;;;6.45;;
21800;SDS011;11062;51.164;16.924;2024-01-07T05:16:57;21.83;;;5.93;;
21800;SDS011;11062;51.164;16.924;2024-01-07T05:19:22;17.95;;;5.45;;
21800;SDS011;11062;51.164;16.924;2024-01-07T05:21:51;31.25;;;6.38;;
21800;SDS011;11062;51.164;16.924;2024-01-07T05:24:21;19.35;;;5.28;;
21800;SDS011;11062;51.164;16.924;2024-01-07T05:26:47;17.92;;;5.72;;
21800;SDS011;11062;51.164;16.924;2024-01-07T05:29:13;51.42;;;7.65;;
21800;SDS011;11062;51.164;16.924;2024-01-07T05:31:39;20.38;;;6.70;;
21800;SDS011;11062;51.164;16.924;2024-01-07T05:34:05;19.02;;;5.25;;
21800;SDS011;11062;51.164;16.924;2024-01-07T05:36:31;36.25;;;6.78;;
21800;SDS011;11062;51.164;16.924;2024-01-07T05:39:00;19.73;;;5.50;;
21800;SDS011;11062;51.164;16.924;2024-01-07T05:41:26;11.27;;;4.82;;
21800;SDS011;11062;51.164;16.924;2024-01-07T05:43:52;21.70;;;5.72;;
21800;SDS011;11062;51.164;16.924;2024-01-07T05:46:18;18.08;;;5.80;;
21800;SDS011;11062;51.164;16.924;2024-01-07T05:48:50;23.95;;;5.90;;
21800;SDS011;11062;51.164;16.924;2024-01-07T05:51:16;18.15;;;5.10;;
21800;SDS011;11062;51.164;16.924;2024-01-07T05:53:45;11.93;;;4.18;;
21800;SDS011;11062;51.164;16.924;2024-01-07T05:56:12;16.70;;;4.85;;
21800;SDS011;11062;51.164;16.924;2024-01-07T05:58:40;18.30;;;4.97;;
21800;SDS011;11062;51.164;16.924;2024-01-07T06:01:07;15.55;;;4.97;;
21800;SDS011;11062;51.164;16.924;2024-01-07T06:03:33;29.95;;;6.28;;
21800;SDS011;11062;51.164;16.924;2024-01-07T06:05:59;14.40;;;4.85;;
21800;SDS011;11062;51.164;16.924;2024-01-07T06:08:26;16.98;;;4.82;;
21800;SDS011;11062;51.164;16.924;2024-01-07T06:10:51;15.57;;;5.10;;
21800;SDS011;11062;51.164;16.924;2024-01-07T06:13:17;13.18;;;4.75;;
21800;SDS011;11062;51.164;16.924;2024-01-07T06:15:43;11.80;;;4.45;;
21800;SDS011;11062;51.164;16.924;2024-01-07T06:18:18;11.32;;;4.95;;
21800;SDS011;11062;51.164;16.924;2024-01-07T06:20:47;22.92;;;5.50;;
21800;SDS011;11062;51.164;16.924;2024-01-07T06:23:13;16.17;;;5.03;;
21800;SDS011;11062;51.164;16.924;2024-01-07T06:25:39;12.68;;;4.20;;
21800;SDS011;11062;51.164;16.924;2024-01-07T06:28:08;14.10;;;4.35;;
21800;SDS011;11062;51.164;16.924;2024-01-07T06:30:35;28.77;;;5.60;;
21800;SDS011;11062;51.164;16.924;2024-01-07T06:33:01;19.75;;;4.22;;
21800;SDS011;11062;51.164;16.924;2024-01-07T06:35:29;19.77;;;4.30;;
21800;SDS011;11062;51.164;16.924;2024-01-07T06:37:55;24.38;;;5.53;;
21800;SDS011;11062;51.164;16.924;2024-01-07T06:40:21;15.77;;;4.65;;
21800;SDS011;11062;51.164;16.924;2024-01-07T06:42:48;78.93;;;28.08;;
21800;SDS011;11062;51.164;16.924;2024-01-07T06:45:14;107.85;;;52.58;;
21800;SDS011;11062;51.164;16.924;2024-01-07T06:47:49;111.38;;;53.38;;
21800;SDS011;11062;51.164;16.924;2024-01-07T06:50:15;105.68;;;52.63;;
21800;SDS011;11062;51.164;16.924;2024-01-07T06:52:45;147.35;;;62.92;;
21800;SDS011;11062;51.164;16.924;2024-01-07T06:55:11;111.47;;;52.38;;
21800;SDS011;11062;51.164;16.924;2024-01-07T06:57:37;99.55;;;53.75;;
21800;SDS011;11062;51.164;16.924;2024-01-07T07:00:03;87.38;;;46.60;;
21800;SDS011;11062;51.164;16.924;2024-01-07T07:02:33;56.50;;;40.25;;
21800;SDS011;11062;51.164;16.924;2024-01-07T07:04:59;19.42;;;12.20;;
21800;SDS011;11062;51.164;16.924;2024-01-07T07:07:24;12.60;;;3.38;;
21800;SDS011;11062;51.164;16.924;2024-01-07T07:09:50;28.33;;;5.15;;
21800;SDS011;11062;51.164;16.924;2024-01-07T07:12:19;13.50;;;4.13;;
21800;SDS011;11062;51.164;16.924;2024-01-07T07:14:45;16.08;;;3.83;;
21800;SDS011;11062;51.164;16.924;2024-01-07T07:17:12;16.92;;;4.10;;
21800;SDS011;11062;51.164;16.924;2024-01-07T07:19:39;13.32;;;3.53;;
21800;SDS011;11062;51.164;16.924;2024-01-07T07:22:04;10.88;;;3.30;;
21800;SDS011;11062;51.164;16.924;2024-01-07T07:24:30;37.95;;;5.43;;
21800;SDS011;11062;51.164;16.924;2024-01-07T07:26:56;17.95;;;3.88;;
21800;SDS011;11062;51.164;16.924;2024-01-07T07:29:22;25.23;;;4.55;;
21800;SDS011;11062;51.164;16.924;2024-01-07T07:31:48;12.25;;;3.08;;
21800;SDS011;11062;51.164;16.924;2024-01-07T07:34:14;12.57;;;3.33;;
21800;SDS011;11062;51.164;16.924;2024-01-07T07:36:39;10.90;;;3.70;;
21800;SDS011;11062;51.164;16.924;2024-01-07T07:39:06;34.67;;;5.18;;
21800;SDS011;11062;51.164;16.924;2024-01-07T07:41:32;15.23;;;3.80;;
21800;SDS011;11062;51.164;16.924;2024-01-07T07:43:58;22.98;;;4.63;;
21800;SDS011;11062;51.164;16.924;2024-01-07T07:46:26;18.38;;;3.97;;
21800;SDS011;11062;51.164;16.924;2024-01-07T07:48:52;16.55;;;3.47;;
21800;SDS011;11062;51.164;16.924;2024-01-07T07:51:18;10.98;;;3.08;;
21800;SDS011;11062;51.164;16.924;2024-01-07T07:53:46;33.63;;;5.10;;
21800;SDS011;11062;51.164;16.924;2024-01-07T07:56:12;15.23;;;3.38;;
21800;SDS011;11062;51.164;16.924;2024-01-07T07:58:38;15.95;;;3.25;;
21800;SDS011;11062;51.164;16.924;2024-01-07T08:01:07;14.05;;;3.58;;
21800;SDS011;11062;51.164;16.924;2024-01-07T08:03:33;11.55;;;3.00;;
21800;SDS011;11062;51.164;16.924;2024-01-07T08:05:59;28.42;;;4.82;;
21800;SDS011;11062;51.164;16.924;2024-01-07T08:08:28;15.10;;;3.60;;
21800;SDS011;11062;51.164;16.924;2024-01-07T08:10:53;12.88;;;2.97;;
21800;SDS011;11062;51.164;16.924;2024-01-07T08:13:19;14.40;;;3.42;;
21800;SDS011;11062;51.164;16.924;2024-01-07T08:15:45;15.57;;;3.33;;
21800;SDS011;11062;51.164;16.924;2024-01-07T08:18:12;12.55;;;3.55;;
21800;SDS011;11062;51.164;16.924;2024-01-07T08:20:44;36.65;;;5.47;;
21800;SDS011;11062;51.164;16.924;2024-01-07T08:23:13;23.83;;;4.07;;
21800;SDS011;11062;51.164;16.924;2024-01-07T08:25:39;18.30;;;4.00;;
21800;SDS011;11062;51.164;16.924;2024-01-07T08:28:09;15.10;;;3.63;;
21800;SDS011;11062;51.164;16.924;2024-01-07T08:30:38;13.32;;;3.42;;
21800;SDS011;11062;51.164;16.924;2024-01-07T08:33:04;53.95;;;7.07;;
21800;SDS011;11062;51.164;16.924;2024-01-07T08:35:29;13.65;;;3.28;;
21800;SDS011;11062;51.164;16.924;2024-01-07T08:37:58;13.93;;;3.67;;
21800;SDS011;11062;51.164;16.924;2024-01-07T08:40:24;21.45;;;4.20;;
21800;SDS011;11062;51.164;16.924;2024-01-07T08:42:50;20.02;;;4.50;;
21800;SDS011;11062;51.164;16.924;2024-01-07T08:45:16;10.73;;;3.67;;
21800;SDS011;11062;51.164;16.924;2024-01-07T08:47:50;33.47;;;5.95;;
21800;SDS011;11062;51.164;16.924;2024-01-07T08:50:16;14.88;;;4.18;;
21800;SDS011;11062;51.164;16.924;2024-01-07T08:52:42;26.67;;;5.53;;
21800;SDS011;11062;51.164;16.924;2024-01-07T08:55:11;17.00;;;5.18;;
21800;SDS011;11062;51.164;16.924;2024-01-07T08:57:37;17.55;;;4.80;;
21800;SDS011;11062;51.164;16.924;2024-01-07T09:00:04;30.00;;;6.32;;
21800;SDS011;11062;51.164;16.924;2024-01-07T09:02:32;20.67;;;5.10;;
21800;SDS011;11062;51.164;16.924;2024-01-07T09:05:01;16.70;;;4.90;;
21800;SDS011;11062;51.164;16.924;2024-01-07T09:07:27;20.65;;;5.25;;
21800;SDS011;11062;51.164;16.924;2024-01-07T09:09:56;24.33;;;5.32;;
21800;SDS011;11062;51.164;16.924;2024-01-07T09:12:26;21.23;;;4.85;;
21800;SDS011;11062;51.164;16.924;2024-01-07T09:14:58;24.02;;;5.40;;
21800;SDS011;11062;51.164;16.924;2024-01-07T09:17:27;15.02;;;4.45;;
21800;SDS011;11062;51.164;16.924;2024-01-07T09:19:53;24.65;;;4.97;;
21800;SDS011;11062;51.164;16.924;2024-01-07T09:22:19;23.58;;;4.63;;
21800;SDS011;11062;51.164;16.924;2024-01-07T09:24:47;14.93;;;4.90;;
21800;SDS011;11062;51.164;16.924;2024-01-07T09:27:13;64.32;;;9.32;;
21800;SDS011;11062;51.164;16.924;2024-01-07T09:29:39;25.67;;;5.68;;
21800;SDS011;11062;51.164;16.924;2024-01-07T09:32:05;27.88;;;5.53;;
21800;SDS011;11062;51.164;16.924;2024-01-07T09:34:31;35.38;;;10.55;;
21800;SDS011;11062;51.164;16.924;2024-01-07T09:36:57;22.08;;;6.90;;
21800;SDS011;11062;51.164;16.924;2024-01-07T09:39:23;33.90;;;24.92;;
21800;SDS011;11062;51.164;16.924;2024-01-07T09:41:50;45.55;;;20.45;;
21800;SDS011;11062;51.164;16.924;2024-01-07T09:44:16;33.63;;;20.50;;
21800;SDS011;11062;51.164;16.924;2024-01-07T09:46:47;24.05;;;8.52;;
21800;SDS011;11062;51.164;16.924;2024-01-07T09:49:16;24.95;;;6.10;;
21800;SDS011;11062;51.164;16.924;2024-01-07T09:51:44;18.70;;;5.45;;
21800;SDS011;11062;51.164;16.924;2024-01-07T09:54:13;97.03;;;42.03;;
21800;SDS011;11062;51.164;16.924;2024-01-07T09:56:50;40.13;;;12.43;;
21800;SDS011;11062;51.164;16.924;2024-01-07T09:59:27;13.98;;;5.63;;
21800;SDS011;11062;51.164;16.924;2024-01-07T10:01:53;21.58;;;7.47;;
21800;SDS011;11062;51.164;16.924;2024-01-07T10:04:23;16.17;;;5.28;;
21800;SDS011;11062;51.164;16.924;2024-01-07T10:06:53;41.75;;;10.90;;
21800;SDS011;11062;51.164;16.924;2024-01-07T10:09:19;23.75;;;8.07;;
21800;SDS011;11062;51.164;16.924;2024-01-07T10:11:51;20.83;;;6.20;;
21800;SDS011;11062;51.164;16.924;2024-01-07T10:14:21;17.85;;;8.20;;
21800;SDS011;11062;51.164;16.924;2024-01-07T10:16:52;14.40;;;5.32;;
21800;SDS011;11062;51.164;16.924;2024-01-07T10:19:22;37.90;;;8.13;;
21800;SDS011;11062;51.164;16.924;2024-01-07T10:22:00;17.85;;;4.07;;
21800;SDS011;11062;51.164;16.924;2024-01-07T10:24:36;16.52;;;4.80;;
21800;SDS011;11062;51.164;16.924;2024-01-07T10:27:04;15.40;;;4.55;;
21800;SDS011;11062;51.164;16.924;2024-01-07T10:29:31;57.90;;;8.27;;
21800;SDS011;11062;51.164;16.924;2024-01-07T10:32:00;23.00;;;4.90;;
21800;SDS011;11062;51.164;16.924;2024-01-07T10:34:29;23.25;;;5.30;;
21800;SDS011;11062;51.164;16.924;2024-01-07T10:36:58;29.33;;;5.85;;
21800;SDS011;11062;51.164;16.924;2024-01-07T10:39:25;17.23;;;4.95;;
21800;SDS011;11062;51.164;16.924;2024-01-07T10:45:38;25.77;;;12.98;;
21800;SDS011;11062;51.164;16.924;2024-01-07T10:52:13;20.63;;;8.35;;
21800;SDS011;11062;51.164;16.924;2024-01-07T10:59:21;24.42;;;14.38;;
21800;SDS011;11062;51.164;16.924;2024-01-07T11:10:38;112.88;;;55.08;;
21800;SDS011;11062;51.164;16.924;2024-01-07T11:17:42;90.15;;;47.28;;
21800;SDS011;11062;51.164;16.924;2024-01-07T11:24:41;63.85;;;32.92;;
21800;SDS011;11062;51.164;16.924;2024-01-07T11:31:45;16.50;;;5.78;;
21800;SDS011;11062;51.164;16.924;2024-01-07T11:34:40;19.35;;;5.18;;
21800;SDS011;11062;51.164;16.924;2024-01-07T11:38:13;51.13;;;8.43;;
21800;SDS011;11062;51.164;16.924;2024-01-07T11:41:34;36.78;;;18.52;;
21800;SDS011;11062;51.164;16.924;2024-01-07T11:45:06;48.45;;;13.45;;
21800;SDS011;11062;51.164;16.924;2024-01-07T11:48:21;36.08;;;11.48;;
21800;SDS011;11062;51.164;16.924;2024-01-07T11:50:54;47.03;;;26.00;;
21800;SDS011;11062;51.164;16.924;2024-01-07T11:53:23;88.05;;;47.10;;
21800;SDS011;11062;51.164;16.924;2024-01-07T11:55:49;113.40;;;56.83;;
21800;SDS011;11062;51.164;16.924;2024-01-07T11:58:15;116.63;;;56.10;;
21800;SDS011;11062;51.164;16.924;2024-01-07T12:00:41;189.60;;;73.10;;
21800;SDS011;11062;51.164;16.924;2024-01-07T12:03:07;209.68;;;77.82;;
21800;SDS011;11062;51.164;16.924;2024-01-07T12:05:36;186.18;;;75.32;;
21800;SDS011;11062;51.164;16.924;2024-01-07T12:08:11;191.63;;;77.13;;
21800;SDS011;11062;51.164;16.924;2024-01-07T12:10:49;156.82;;;69.90;;
21800;SDS011;11062;51.164;16.924;2024-01-07T12:13:34;223.73;;;75.63;;
21800;SDS011;11062;51.164;16.924;2024-01-07T12:16:09;104.23;;;50.17;;
21800;SDS011;11062;51.164;16.924;2024-01-07T12:18:40;122.72;;;60.78;;
21800;SDS011;11062;51.164;16.924;2024-01-07T12:21:32;156.45;;;68.82;;
21800;SDS011;11062;51.164;16.924;2024-01-07T12:24:24;206.00;;;79.57;;
21800;SDS011;11062;51.164;16.924;2024-01-07T12:27:07;196.88;;;76.85;;
21800;SDS011;11062;51.164;16.924;2024-01-07T12:30:00;225.10;;;81.30;;
21800;SDS011;11062;51.164;16.924;2024-01-07T12:33:03;208.55;;;74.85;;
21800;SDS011;11062;51.164;16.924;2024-01-07T12:35:38;214.13;;;76.55;;
21800;SDS011;11062;51.164;16.924;2024-01-07T12:38:05;215.68;;;76.63;;
21800;SDS011;11062;51.164;16.924;2024-01-07T12:40:36;236.27;;;81.15;;
21800;SDS011;11062;51.164;16.924;2024-01-07T12:43:21;216.45;;;79.80;;
21800;SDS011;11062;51.164;16.924;2024-01-07T12:46:17;193.43;;;76.78;;
21800;SDS011;11062;51.164;16.924;2024-01-07T12:49:12;151.10;;;67.65;;
21800;SDS011;11062;51.164;16.924;2024-01-07T12:52:11;177.38;;;72.32;;
21800;SDS011;11062;51.164;16.924;2024-01-07T12:54:48;48.17;;;26.88;;
21800;SDS011;11062;51.164;16.924;2024-01-07T12:57:43;64.05;;;33.80;;
21800;SDS011;11062;51.164;16.924;2024-01-07T13:00:29;108.55;;;54.95;;
21800;SDS011;11062;51.164;16.924;2024-01-07T13:03:09;56.97;;;36.25;;
21800;SDS011;11062;51.164;16.924;2024-01-07T13:06:27;71.47;;;39.20;;
21800;SDS011;11062;51.164;16.924;2024-01-07T13:10:32;53.67;;;32.67;;
21800;SDS011;11062;51.164;16.924;2024-01-07T13:14:15;208.68;;;75.05;;
21800;SDS011;11062;51.164;16.924;2024-01-07T13:16:44;201.50;;;74.45;;
21800;SDS011;11062;51.164;16.924;2024-01-07T13:19:09;202.52;;;77.10;;
21800;SDS011;11062;51.164;16.924;2024-01-07T13:21:35;208.10;;;75.75;;
21800;SDS011;11062;51.164;16.924;2024-01-07T13:24:02;175.82;;;72.28;;
21800;SDS011;11062;51.164;16.924;2024-01-07T13:26:28;57.70;;;35.05;;
21800;SDS011;11062;51.164;16.924;2024-01-07T13:28:54;39.17;;;18.13;;
21800;SDS011;11062;51.164;16.924;2024-01-07T13:31:20;33.58;;;8.45;;
21800;SDS011;11062;51.164;16.924;2024-01-07T13:33:47;54.13;;;9.60;;
21800;SDS011;11062;51.164;16.924;2024-01-07T13:36:13;28.40;;;7.53;;
21800;SDS011;11062;51.164;16.924;2024-01-07T13:38:38;55.90;;;10.50;;
21800;SDS011;11062;51.164;16.924;2024-01-07T13:41:06;20.90;;;7.38;;
21800;SDS011;11062;51.164;16.924;2024-01-07T13:43:39;28.95;;;8.75;;
21800;SDS011;11062;51.164;16.924;2024-01-07T13:46:05;26.65;;;7.63;;
21800;SDS011;11062;51.164;16.924;2024-01-07T13:48:31;22.75;;;6.72;;
21800;SDS011;11062;51.164;16.924;2024-01-07T13:51:00;21.88;;;7.60;;
21800;SDS011;11062;51.164;16.924;2024-01-07T13:53:27;24.65;;;6.65;;
21800;SDS011;11062;51.164;16.924;2024-01-07T13:55:56;28.98;;;8.15;;
21800;SDS011;11062;51.164;16.924;2024-01-07T13:58:22;24.33;;;8.02;;
21800;SDS011;11062;51.164;16.924;2024-01-07T14:00:48;35.65;;;8.93;;
21800;SDS011;11062;51.164;16.924;2024-01-07T14:03:15;142.23;;;63.03;;
21800;SDS011;11062;51.164;16.924;2024-01-07T14:05:41;79.10;;;50.17;;
21800;SDS011;11062;51.164;16.924;2024-01-07T14:08:07;111.43;;;52.90;;
21800;SDS011;11062;51.164;16.924;2024-01-07T14:10:33;126.82;;;61.35;;
21800;SDS011;11062;51.164;16.924;2024-01-07T14:12:59;110.45;;;56.47;;
21800;SDS011;11062;51.164;16.924;2024-01-07T14:15:25;120.38;;;60.22;;
21800;SDS011;11062;51.164;16.924;2024-01-07T14:17:54;166.18;;;70.10;;
21800;SDS011;11062;51.164;16.924;2024-01-07T14:20:19;167.27;;;70.15;;
21800;SDS011;11062;51.164;16.924;2024-01-07T14:22:48;181.07;;;67.93;;
21800;SDS011;11062;51.164;16.924;2024-01-07T14:25:14;170.00;;;69.72;;
21800;SDS011;11062;51.164;16.924;2024-01-07T14:27:40;161.25;;;68.43;;
21800;SDS011;11062;51.164;16.924;2024-01-07T14:30:06;202.35;;;75.82;;
21800;SDS011;11062;51.164;16.924;2024-01-07T14:32:32;192.18;;;75.32;;
21800;SDS011;11062;51.164;16.924;2024-01-07T14:34:59;183.00;;;72.47;;
21800;SDS011;11062;51.164;16.924;2024-01-07T14:37:27;203.13;;;78.95;;
21800;SDS011;11062;51.164;16.924;2024-01-07T14:39:54;205.60;;;76.32;;
21800;SDS011;11062;51.164;16.924;2024-01-07T14:42:20;135.77;;;64.32;;
21800;SDS011;11062;51.164;16.924;2024-01-07T14:44:46;180.32;;;73.57;;
21800;SDS011;11062;51.164;16.924;2024-01-07T14:47:12;205.43;;;76.95;;
21800;SDS011;11062;51.164;16.924;2024-01-07T14:49:39;233.15;;;78.82;;
21800;SDS011;11062;51.164;16.924;2024-01-07T14:52:05;200.88;;;79.72;;
21800;SDS011;11062;51.164;16.924;2024-01-07T14:54:31;176.48;;;70.63;;
21800;SDS011;11062;51.164;16.924;2024-01-07T14:57:04;172.13;;;72.45;;
21800;SDS011;11062;51.164;16.924;2024-01-07T14:59:31;136.93;;;65.82;;
21800;SDS011;11062;51.164;16.924;2024-01-07T15:02:01;135.52;;;62.10;;
21800;SDS011;11062;51.164;16.924;2024-01-07T15:04:27;125.60;;;60.55;;
21800;SDS011;11062;51.164;16.924;2024-01-07T15:06:53;129.07;;;61.53;;
21800;SDS011;11062;51.164;16.924;2024-01-07T15:09:22;157.68;;;67.20;;